Time;durP1;ratioP1;P1;durP2;ratioP2;P2;SDS_P1;SDS_P2;PMS_P1;PMS_P2;Temp;Humidity;BMP_temperature;BMP_pressure;BME280_temperature;BME280_humidity;BME280_pressure;Samples;Min_cycle;Max_cycle;Signal;HPM_P1;HPM_P2
2023/07/05 00:00:41;;;;;;;18.90;13.37;;;;;;;;;;5051456;28;20274;-83
2023/07/05 00:03:08;;;;;;;16.30;12.77;;;;;;;;;;5035175;28;20208;-82
2023/07/05 00:05:37;;;;;;;21.07;13.47;;;;;;;;;;5034605;28;20184;-82
2023/07/05 00:08:04;;;;;;;21.80;13.57;;;;;;;;;;5035880;28;20172;-83
2023/07/05 00:10:32;;;;;;;18.33;13.80;;;;;;;;;;5034467;28;20180;-83
2023/07/05 00:13:01;;;;;;;19.17;14.13;;;;;;;;;;5034702;28;20192;-83
2023/07/05 00:15:28;;;;;;;19.77;14.63;;;;;;;;;;5034180;28;20181;-83
2023/07/05 00:17:57;;;;;;;22.63;14.27;;;;;;;;;;5035219;28;20206;-83
2023/07/05 00:20:23;;;;;;;23.27;14.70;;;;;;;;;;5034110;28;20187;-83
2023/07/05 00:22:50;;;;;;;21.27;13.63;;;;;;;;;;5035546;28;20167;-83
2023/07/05 00:25:16;;;;;;;19.53;13.23;;;;;;;;;;5034200;28;20191;-82
2023/07/05 00:27:42;;;;;;;18.17;13.97;;;;;;;;;;5018972;28;20204;-83
2023/07/05 00:30:08;;;;;;;18.43;14.57;;;;;;;;;;5034404;28;20184;-83
2023/07/05 00:32:34;;;;;;;19.50;13.73;;;;;;;;;;5032214;28;20188;-83
2023/07/05 00:35:02;;;;;;;20.53;14.07;;;;;;;;;;5033876;28;20274;-83
2023/07/05 00:37:28;;;;;;;19.03;13.30;;;;;;;;;;5037507;28;20211;-83
2023/07/05 00:39:54;;;;;;;15.47;11.90;;;;;;;;;;5020398;28;20190;-82
2023/07/05 00:42:20;;;;;;;18.77;12.70;;;;;;;;;;5037862;28;20192;-83
2023/07/05 00:45:05;;;;;;;17.57;10.93;;;;;;;;;;5036087;28;20208;-83
2023/07/05 00:47:37;;;;;;;14.67;10.23;;;;;;;;;;5038522;28;20184;-82
2023/07/05 00:50:11;;;;;;;13.33;9.43;;;;;;;;;;5036655;28;20180;-83
2023/07/05 00:52:37;;;;;;;11.23;9.10;;;;;;;;;;5038842;28;20185;-82
2023/07/05 00:55:03;;;;;;;10.40;8.23;;;;;;;;;;5033242;28;20236;-82
2023/07/05 00:57:35;;;;;;;11.07;8.80;;;;;;;;;;5018981;28;20192;-82
2023/07/05 01:00:08;;;;;;;12.13;8.77;;;;;;;;;;5053884;28;20233;-83
2023/07/05 01:02:39;;;;;;;12.20;9.47;;;;;;;;;;5038463;28;20212;-83
2023/07/05 01:05:08;;;;;;;12.30;9.20;;;;;;;;;;5053894;28;20180;-83
2023/07/05 01:07:34;;;;;;;13.47;8.57;;;;;;;;;;5054710;28;20259;-82
2023/07/05 01:10:00;;;;;;;11.57;8.50;;;;;;;;;;5029077;28;20195;-82
2023/07/05 01:12:26;;;;;;;11.53;8.23;;;;;;;;;;5029909;28;20271;-82
2023/07/05 01:14:59;;;;;;;10.60;7.97;;;;;;;;;;5044026;28;20188;-82
2023/07/05 01:17:40;;;;;;;10.20;8.00;;;;;;;;;;5026417;28;20218;-82
2023/07/05 01:20:15;;;;;;;13.63;9.10;;;;;;;;;;5048885;28;20194;-83
2023/07/05 01:22:44;;;;;;;11.90;8.67;;;;;;;;;;5044404;28;20204;-82
2023/07/05 01:25:29;;;;;;;11.60;8.60;;;;;;;;;;5029753;28;20190;-82
2023/07/05 01:28:01;;;;;;;10.67;8.03;;;;;;;;;;5026100;28;20195;-82
2023/07/05 01:30:54;;;;;;;12.17;8.03;;;;;;;;;;5030214;28;20184;-82
2023/07/05 01:33:28;;;;;;;9.07;7.97;;;;;;;;;;5044148;28;20228;-83
2023/07/05 01:35:55;;;;;;;12.53;7.67;;;;;;;;;;5033728;28;20222;-83
2023/07/05 01:38:24;;;;;;;12.90;8.60;;;;;;;;;;5027219;28;20196;-82
2023/07/05 01:41:01;;;;;;;13.10;9.33;;;;;;;;;;5029704;28;20188;-82
2023/07/05 01:43:29;;;;;;;10.80;9.37;;;;;;;;;;5028462;28;20262;-82
2023/07/05 01:46:09;;;;;;;13.00;9.47;;;;;;;;;;5051604;28;20234;-82
2023/07/05 01:48:56;;;;;;;12.70;9.13;;;;;;;;;;5037737;28;20171;-82
2023/07/05 01:51:43;;;;;;;15.63;10.53;;;;;;;;;;5037089;28;20191;-82
2023/07/05 01:54:27;;;;;;;12.47;9.67;;;;;;;;;;5037403;28;20235;-82
2023/07/05 01:57:12;;;;;;;13.67;10.23;;;;;;;;;;5053104;28;20188;-82
2023/07/05 01:59:41;;;;;;;13.00;9.37;;;;;;;;;;5036927;28;20219;-82
2023/07/05 02:02:08;;;;;;;14.30;9.60;;;;;;;;;;5035770;28;20187;-82
2023/07/05 02:04:35;;;;;;;11.83;8.87;;;;;;;;;;5019589;28;20227;-82
2023/07/05 02:07:03;;;;;;;13.10;8.57;;;;;;;;;;5019899;28;20222;-82
2023/07/05 02:09:30;;;;;;;9.90;7.67;;;;;;;;;;5053316;28;20179;-82
2023/07/05 02:11:56;;;;;;;9.87;7.27;;;;;;;;;;5035141;28;20218;-82
2023/07/05 02:14:23;;;;;;;10.03;7.10;;;;;;;;;;5053252;28;20196;-82
2023/07/05 02:16:49;;;;;;;9.23;6.93;;;;;;;;;;5036730;28;20231;-82
2023/07/05 02:19:15;;;;;;;8.67;6.23;;;;;;;;;;5032500;28;20211;-82
2023/07/05 02:21:41;;;;;;;8.17;5.83;;;;;;;;;;5027130;28;20188;-82
2023/07/05 02:24:07;;;;;;;9.43;5.50;;;;;;;;;;5028020;28;20211;-82
2023/07/05 02:26:36;;;;;;;6.50;5.03;;;;;;;;;;5027365;28;20186;-82
2023/07/05 02:29:02;;;;;;;7.77;5.63;;;;;;;;;;5027810;28;20259;-82
2023/07/05 02:31:29;;;;;;;8.03;5.17;;;;;;;;;;5030866;28;20200;-82
2023/07/05 02:33:57;;;;;;;6.93;5.70;;;;;;;;;;5028490;28;20188;-82
2023/07/05 02:36:23;;;;;;;6.43;5.20;;;;;;;;;;5025583;28;20191;-82
2023/07/05 02:38:52;;;;;;;8.97;5.43;;;;;;;;;;5043665;28;20218;-82
2023/07/05 02:41:21;;;;;;;6.33;5.27;;;;;;;;;;5027442;28;20176;-81
2023/07/05 02:43:47;;;;;;;6.90;4.97;;;;;;;;;;5057305;28;20216;-82
2023/07/05 02:46:13;;;;;;;9.30;4.77;;;;;;;;;;5028236;28;20266;-82
2023/07/05 02:48:41;;;;;;;6.87;4.33;;;;;;;;;;5017380;28;20191;-82
2023/07/05 02:51:09;;;;;;;7.53;4.60;;;;;;;;;;5025604;28;20204;-83
2023/07/05 02:53:35;;;;;;;4.63;4.23;;;;;;;;;;5034624;28;20192;-83
2023/07/05 02:56:03;;;;;;;6.63;4.20;;;;;;;;;;5015563;28;20196;-83
2023/07/05 02:58:29;;;;;;;5.50;3.40;;;;;;;;;;5015211;28;20192;-90
2023/07/05 03:00:55;;;;;;;5.80;3.50;;;;;;;;;;5016668;28;20201;-90
2023/07/05 03:03:22;;;;;;;5.40;3.30;;;;;;;;;;5018262;28;20227;-90
2023/07/05 03:05:55;;;;;;;3.87;3.47;;;;;;;;;;5033453;28;20600;-90
2023/07/05 03:08:21;;;;;;;3.40;3.10;;;;;;;;;;5038251;28;20217;-91
2023/07/05 03:10:51;;;;;;;5.13;3.80;;;;;;;;;;5026299;28;20188;-90
2023/07/05 03:13:18;;;;;;;5.30;3.70;;;;;;;;;;5036809;28;20187;-91
2023/07/05 03:15:47;;;;;;;6.17;4.20;;;;;;;;;;5054155;28;20183;-89
2023/07/05 03:18:13;;;;;;;4.83;4.30;;;;;;;;;;5036440;28;20191;-89
2023/07/05 03:20:39;;;;;;;4.47;4.07;;;;;;;;;;5037024;28;20206;-91
2023/07/05 03:23:08;;;;;;;8.77;4.17;;;;;;;;;;5028928;28;20188;-91
2023/07/05 03:25:34;;;;;;;5.80;4.47;;;;;;;;;;5037191;28;20191;-90
2023/07/05 03:28:04;;;;;;;4.53;4.13;;;;;;;;;;5016757;28;20243;-91
2023/07/05 03:30:35;;;;;;;5.10;4.03;;;;;;;;;;5031047;28;20176;-84
2023/07/05 03:33:01;;;;;;;4.97;4.30;;;;;;;;;;5026106;28;20233;-84
2023/07/05 03:35:29;;;;;;;4.37;3.77;;;;;;;;;;5030009;28;20183;-84
2023/07/05 03:37:55;;;;;;;4.67;4.17;;;;;;;;;;5033704;28;20184;-84
2023/07/05 03:40:22;;;;;;;5.03;3.87;;;;;;;;;;5028026;28;20198;-85
2023/07/05 03:42:48;;;;;;;4.80;4.30;;;;;;;;;;5035435;28;20180;-84
2023/07/05 03:45:16;;;;;;;4.67;3.80;;;;;;;;;;5032123;28;20187;-84
2023/07/05 03:47:42;;;;;;;5.47;4.00;;;;;;;;;;5035118;28;20267;-84
2023/07/05 03:50:08;;;;;;;4.97;4.10;;;;;;;;;;5019412;28;20188;-85
2023/07/05 03:52:35;;;;;;;5.40;4.13;;;;;;;;;;5034789;28;20181;-85
2023/07/05 03:55:01;;;;;;;7.57;3.80;;;;;;;;;;5019643;28;20218;-85
2023/07/05 03:57:27;;;;;;;4.73;4.07;;;;;;;;;;5051856;28;20187;-84
2023/07/05 03:59:53;;;;;;;5.93;4.00;;;;;;;;;;5029163;28;20286;-85
2023/07/05 04:02:21;;;;;;;4.80;3.60;;;;;;;;;;5018834;28;20188;-85
2023/07/05 04:04:47;;;;;;;5.67;4.10;;;;;;;;;;5036026;28;20212;-85
2023/07/05 04:07:13;;;;;;;4.93;3.60;;;;;;;;;;5034800;28;20179;-85
2023/07/05 04:09:40;;;;;;;6.50;3.80;;;;;;;;;;5023026;28;20176;-85
2023/07/05 04:12:08;;;;;;;4.57;3.83;;;;;;;;;;5028836;28;20179;-85
2023/07/05 04:14:34;;;;;;;7.80;4.30;;;;;;;;;;5027965;28;20177;-85
2023/07/05 04:17:00;;;;;;;4.93;3.87;;;;;;;;;;5029289;28;20191;-85
2023/07/05 04:19:26;;;;;;;7.80;4.10;;;;;;;;;;5028343;28;20267;-85
2023/07/05 04:21:55;;;;;;;5.23;4.03;;;;;;;;;;5023852;28;20183;-85
2023/07/05 04:24:21;;;;;;;4.30;3.83;;;;;;;;;;5030372;28;20196;-85
2023/07/05 04:26:47;;;;;;;6.50;4.60;;;;;;;;;;5028001;28;20200;-85
2023/07/05 04:29:13;;;;;;;6.83;4.60;;;;;;;;;;5031255;28;20298;-85
2023/07/05 04:31:39;;;;;;;7.37;4.43;;;;;;;;;;5039318;28;20175;-85
2023/07/05 04:34:05;;;;;;;5.37;4.03;;;;;;;;;;5039146;28;20186;-85
2023/07/05 04:36:31;;;;;;;7.33;4.40;;;;;;;;;;5039093;28;20176;-85
2023/07/05 04:39:01;;;;;;;7.20;4.60;;;;;;;;;;5038577;28;20483;-85
2023/07/05 04:41:27;;;;;;;6.47;4.60;;;;;;;;;;5040165;28;20183;-85
2023/07/05 04:43:53;;;;;;;5.90;4.80;;;;;;;;;;5039497;28;20212;-85
2023/07/05 04:46:20;;;;;;;6.80;4.67;;;;;;;;;;5038079;28;20194;-84
2023/07/05 04:48:46;;;;;;;6.67;5.00;;;;;;;;;;5038580;28;20327;-85
2023/07/05 04:51:12;;;;;;;6.20;4.80;;;;;;;;;;5035397;28;20192;-84
2023/07/05 04:53:39;;;;;;;8.50;5.20;;;;;;;;;;5038649;28;20183;-84
2023/07/05 04:56:05;;;;;;;7.57;4.70;;;;;;;;;;5038836;28;20184;-84
2023/07/05 04:58:34;;;;;;;7.33;4.80;;;;;;;;;;5038873;28;20184;-84
2023/07/05 05:01:03;;;;;;;9.47;5.13;;;;;;;;;;5031235;28;20180;-84
2023/07/05 05:03:32;;;;;;;6.23;4.50;;;;;;;;;;5032533;28;20220;-84
2023/07/05 05:05:58;;;;;;;8.30;5.13;;;;;;;;;;5038196;28;20183;-84
2023/07/05 05:08:25;;;;;;;5.57;4.60;;;;;;;;;;5038333;28;20180;-85
2023/07/05 05:10:57;;;;;;;7.73;4.83;;;;;;;;;;5037423;28;20180;-85
2023/07/05 05:13:28;;;;;;;7.30;4.83;;;;;;;;;;5053864;28;20204;-85
2023/07/05 05:15:55;;;;;;;8.23;5.33;;;;;;;;;;5039040;28;20251;-85
2023/07/05 05:18:22;;;;;;;10.43;5.10;;;;;;;;;;5037774;28;20196;-84
2023/07/05 05:20:51;;;;;;;9.10;5.03;;;;;;;;;;5037221;28;20191;-85
2023/07/05 05:23:18;;;;;;;9.17;5.07;;;;;;;;;;5038084;28;20221;-84
2023/07/05 05:25:49;;;;;;;9.87;4.97;;;;;;;;;;5038137;28;20176;-85
2023/07/05 05:28:21;;;;;;;7.50;5.23;;;;;;;;;;5038116;28;20196;-89
2023/07/05 05:30:53;;;;;;;6.07;4.70;;;;;;;;;;5038009;28;20208;-89
2023/07/05 05:33:19;;;;;;;9.97;4.30;;;;;;;;;;5055239;28;20184;-89
2023/07/05 05:35:49;;;;;;;7.20;4.73;;;;;;;;;;5054981;28;20176;-88
2023/07/05 05:38:17;;;;;;;5.93;4.93;;;;;;;;;;5037955;28;20184;-89
2023/07/05 05:40:46;;;;;;;7.80;4.83;;;;;;;;;;5037889;28;20183;-89
2023/07/05 05:43:12;;;;;;;6.93;4.87;;;;;;;;;;5037891;28;20244;-89
2023/07/05 05:45:40;;;;;;;7.47;4.70;;;;;;;;;;5037422;28;20176;-89
2023/07/05 05:48:09;;;;;;;8.90;4.57;;;;;;;;;;5051176;28;20176;-89
2023/07/05 05:50:35;;;;;;;7.70;4.57;;;;;;;;;;5037444;28;20187;-89
2023/07/05 05:53:02;;;;;;;7.10;4.90;;;;;;;;;;5036384;28;20180;-90
2023/07/05 05:55:30;;;;;;;7.67;4.33;;;;;;;;;;5037082;28;20262;-89
2023/07/05 05:57:56;;;;;;;7.00;4.23;;;;;;;;;;5037263;28;20191;-89
2023/07/05 06:00:22;;;;;;;8.47;4.83;;;;;;;;;;5036395;28;20283;-88
2023/07/05 06:02:54;;;;;;;6.60;4.40;;;;;;;;;;5054370;28;20186;-89
2023/07/05 06:05:20;;;;;;;7.50;4.50;;;;;;;;;;5035451;28;20180;-89
2023/07/05 06:07:46;;;;;;;8.00;4.20;;;;;;;;;;5037232;28;20183;-89
2023/07/05 06:10:15;;;;;;;6.30;4.13;;;;;;;;;;5030787;28;20420;-88
2023/07/05 06:12:41;;;;;;;6.40;4.00;;;;;;;;;;5050166;28;20188;-88
2023/07/05 06:15:14;;;;;;;5.37;4.10;;;;;;;;;;5034455;28;20274;-88
2023/07/05 06:17:40;;;;;;;6.23;4.03;;;;;;;;;;5036904;28;20180;-88
2023/07/05 06:20:07;;;;;;;8.67;4.47;;;;;;;;;;5021565;28;20196;-88
2023/07/05 06:22:36;;;;;;;6.80;4.30;;;;;;;;;;5033070;28;20183;-89
2023/07/05 06:25:03;;;;;;;10.00;4.20;;;;;;;;;;5026991;28;20215;-90
2023/07/05 06:27:29;;;;;;;5.10;4.10;;;;;;;;;;5040091;28;20227;-89
2023/07/05 06:29:59;;;;;;;6.43;3.80;;;;;;;;;;5019718;28;20423;-89
2023/07/05 06:32:26;;;;;;;7.40;4.30;;;;;;;;;;5040361;28;20187;-90
2023/07/05 06:34:52;;;;;;;5.00;3.87;;;;;;;;;;5020525;28;20218;-90
2023/07/05 06:37:26;;;;;;;5.60;4.10;;;;;;;;;;5020452;28;20211;-90
2023/07/05 06:39:52;;;;;;;7.20;3.90;;;;;;;;;;5023070;28;20187;-90
2023/07/05 06:42:18;;;;;;;7.10;3.63;;;;;;;;;;5022105;28;20274;-89
2023/07/05 06:44:46;;;;;;;6.20;4.53;;;;;;;;;;5019006;28;20223;-88
2023/07/05 06:47:12;;;;;;;6.17;3.70;;;;;;;;;;5022695;28;20195;-89
2023/07/05 06:49:41;;;;;;;4.87;3.87;;;;;;;;;;5029600;28;20183;-88
2023/07/05 06:52:07;;;;;;;6.37;3.93;;;;;;;;;;5029996;28;20227;-87
2023/07/05 06:54:34;;;;;;;4.10;3.70;;;;;;;;;;5019483;28;20234;-88
2023/07/05 06:57:03;;;;;;;6.28;4.10;;;;;;;;;;5052881;28;20423;-88
2023/07/05 06:59:29;;;;;;;6.60;3.57;;;;;;;;;;5053758;28;20263;-88
2023/07/05 07:01:55;;;;;;;5.00;3.23;;;;;;;;;;5037213;28;20184;-88
2023/07/05 07:04:25;;;;;;;5.47;3.60;;;;;;;;;;5033803;28;20210;-88
2023/07/05 07:06:51;;;;;;;5.90;3.60;;;;;;;;;;5023673;28;20172;-88
2023/07/05 07:09:18;;;;;;;6.83;3.50;;;;;;;;;;5016620;28;20168;-89
2023/07/05 07:11:44;;;;;;;4.43;2.50;;;;;;;;;;5026922;28;20169;-87
2023/07/05 07:14:12;;;;;;;4.07;2.90;;;;;;;;;;5031908;28;20181;-87
2023/07/05 07:16:38;;;;;;;4.33;3.00;;;;;;;;;;5031110;28;20177;-86
2023/07/05 07:19:05;;;;;;;4.10;2.30;;;;;;;;;;5031937;28;20413;-88
2023/07/05 07:21:40;;;;;;;5.27;2.40;;;;;;;;;;5038057;28;20211;-88
2023/07/05 07:24:09;;;;;;;3.27;2.43;;;;;;;;;;5047296;28;20199;-88
2023/07/05 07:26:35;;;;;;;5.07;2.80;;;;;;;;;;5036267;28;20176;-88
2023/07/05 07:29:01;;;;;;;3.90;2.67;;;;;;;;;;5054803;28;20203;-87
2023/07/05 07:31:32;;;;;;;4.07;2.83;;;;;;;;;;5053046;28;20203;-87
2023/07/05 07:34:00;;;;;;;6.03;2.80;;;;;;;;;;5035824;28;20214;-88
2023/07/05 07:36:30;;;;;;;3.73;2.17;;;;;;;;;;5036225;28;20192;-89
2023/07/05 07:38:57;;;;;;;3.87;2.00;;;;;;;;;;5036030;28;20188;-90
2023/07/05 07:41:24;;;;;;;4.97;2.20;;;;;;;;;;5041813;28;20207;-88
2023/07/05 07:43:54;;;;;;;2.90;2.10;;;;;;;;;;5030614;28;20208;-88
2023/07/05 07:46:21;;;;;;;3.60;1.97;;;;;;;;;;5035810;28;20280;-88
2023/07/05 07:48:51;;;;;;;4.73;2.20;;;;;;;;;;5034171;28;20175;-88
2023/07/05 07:51:17;;;;;;;3.07;2.00;;;;;;;;;;5042517;28;20274;-88
2023/07/05 07:53:44;;;;;;;3.07;2.10;;;;;;;;;;5043729;28;20211;-88
2023/07/05 07:56:33;;;;;;;2.93;2.03;;;;;;;;;;5044087;28;20227;-88
2023/07/05 07:59:06;;;;;;;3.37;2.07;;;;;;;;;;5031944;28;20219;-88
2023/07/05 08:01:34;;;;;;;5.17;2.20;;;;;;;;;;5040847;28;20206;-88
2023/07/05 08:04:01;;;;;;;7.87;2.70;;;;;;;;;;5042417;28;20199;-90
2023/07/05 08:06:36;;;;;;;4.47;3.10;;;;;;;;;;5042812;28;20172;-89
2023/07/05 08:09:02;;;;;;;4.47;3.40;;;;;;;;;;5041523;28;20175;-90
2023/07/05 08:11:29;;;;;;;8.90;3.90;;;;;;;;;;5038823;28;20181;-89
2023/07/05 08:13:55;;;;;;;7.37;3.40;;;;;;;;;;5036094;28;20219;-89
2023/07/05 08:16:21;;;;;;;5.63;3.63;;;;;;;;;;5036825;28;20176;-91
2023/07/05 08:18:47;;;;;;;8.53;3.90;;;;;;;;;;5042017;28;20180;-89
2023/07/05 08:21:14;;;;;;;6.30;3.97;;;;;;;;;;5023220;28;20185;-89
2023/07/05 08:23:43;;;;;;;6.27;3.50;;;;;;;;;;5041460;28;20298;-89
2023/07/05 08:26:09;;;;;;;5.93;3.73;;;;;;;;;;5041510;28;20183;-89
2023/07/05 08:28:35;;;;;;;9.37;4.00;;;;;;;;;;5037295;28;20196;-90
2023/07/05 08:31:03;;;;;;;6.53;3.57;;;;;;;;;;5025702;28;20271;-90
2023/07/05 08:33:31;;;;;;;5.90;3.40;;;;;;;;;;5030328;28;20222;-89
2023/07/05 08:36:06;;;;;;;8.50;3.83;;;;;;;;;;5042000;28;20198;-89
2023/07/05 08:38:32;;;;;;;6.07;3.73;;;;;;;;;;5042615;28;20179;-88
2023/07/05 08:41:05;;;;;;;3.87;3.40;;;;;;;;;;5025756;28;20192;-88
2023/07/05 08:43:57;;;;;;;3.93;3.50;;;;;;;;;;5041631;28;20203;-91
2023/07/05 08:46:26;;;;;;;5.70;3.73;;;;;;;;;;5035333;28;20196;-89
2023/07/05 08:48:59;;;;;;;8.23;4.57;;;;;;;;;;5034169;28;20184;-88
2023/07/05 08:51:26;;;;;;;8.90;4.90;;;;;;;;;;5024738;28;20215;-88
2023/07/05 08:53:53;;;;;;;7.93;4.97;;;;;;;;;;5006083;28;20195;-89
2023/07/05 08:56:23;;;;;;;5.73;4.77;;;;;;;;;;5031524;28;20251;-89
2023/07/05 08:58:56;;;;;;;7.60;4.77;;;;;;;;;;5054790;28;20230;-89
2023/07/05 09:01:48;;;;;;;6.67;4.90;;;;;;;;;;5054588;28;20199;-88
2023/07/05 09:04:23;;;;;;;5.43;4.37;;;;;;;;;;5027174;28;20230;-89
2023/07/05 09:06:56;;;;;;;11.23;5.00;;;;;;;;;;5038568;28;20213;-89
2023/07/05 09:09:31;;;;;;;6.57;4.43;;;;;;;;;;5032718;28;20183;-90
2023/07/05 09:12:06;;;;;;;9.03;5.00;;;;;;;;;;5019160;28;20181;-89
2023/07/05 09:14:42;;;;;;;4.97;4.37;;;;;;;;;;5019192;28;20183;-90
2023/07/05 09:17:18;;;;;;;8.17;4.23;;;;;;;;;;5026480;28;20259;-91
2023/07/05 09:20:06;;;;;;;9.33;4.60;;;;;;;;;;5029440;28;20196;-90
2023/07/05 09:22:38;;;;;;;8.23;4.70;;;;;;;;;;5035339;28;20188;-89
2023/07/05 09:25:07;;;;;;;10.77;4.70;;;;;;;;;;5052547;28;20204;-89
2023/07/05 09:27:38;;;;;;;12.93;4.57;;;;;;;;;;5034617;28;20205;-90
2023/07/05 09:30:17;;;;;;;7.77;4.23;;;;;;;;;;5035950;28;20188;-89
2023/07/05 09:32:45;;;;;;;9.87;4.80;;;;;;;;;;5037302;28;20179;-90
2023/07/05 09:38:41;;;;;;;;;;;;;;;;;;;;;
2023/07/05 09:41:12;;;;;;;6.17;2.23;;;;;;;;;;5036307;28;20191;-90
2023/07/05 09:43:51;;;;;;;5.53;3.10;;;;;;;;;;5038829;28;20203;-90
2023/07/05 09:50:04;;;;;;;5.10;2.77;;;;;;;;;;5046872;28;20206;-89
2023/07/05 09:52:33;;;;;;;6.63;3.00;;;;;;;;;;5019943;28;20202;-90
2023/07/05 09:55:01;;;;;;;9.70;3.17;;;;;;;;;;5036665;28;20300;-89
2023/07/05 09:57:38;;;;;;;7.93;3.37;;;;;;;;;;5038563;28;20230;-89
2023/07/05 10:00:18;;;;;;;6.03;2.80;;;;;;;;;;5037399;28;20195;-91
2023/07/05 10:03:09;;;;;;;;;;;;;;;;;;;;;
2023/07/05 10:06:07;;;;;;;7.73;3.10;;;;;;;;;;5026040;28;20200;-91
2023/07/05 10:29:48;;;;;;;13.40;3.97;;;;;;;;;;5050002;28;20227;-84
2023/07/05 10:32:18;;;;;;;9.20;3.93;;;;;;;;;;5032708;28;20173;-84
2023/07/05 10:34:44;;;;;;;6.73;3.50;;;;;;;;;;5036413;28;20180;-85
2023/07/05 10:37:29;;;;;;;10.13;3.83;;;;;;;;;;5052428;28;20188;-85
2023/07/05 10:39:55;;;;;;;7.60;3.83;;;;;;;;;;5052696;28;20187;-85
2023/07/05 10:42:22;;;;;;;10.67;4.07;;;;;;;;;;5032407;28;20219;-85
2023/07/05 10:44:48;;;;;;;10.73;4.00;;;;;;;;;;5051001;28;20237;-78
2023/07/05 10:47:14;;;;;;;9.47;4.20;;;;;;;;;;5030369;28;20184;-78
2023/07/05 10:49:43;;;;;;;10.50;4.00;;;;;;;;;;5017080;28;20185;-77
2023/07/05 10:52:12;;;;;;;11.40;4.20;;;;;;;;;;5039472;28;20188;-77
2023/07/05 10:54:44;;;;;;;10.47;4.33;;;;;;;;;;5036444;28;20234;-77
2023/07/05 10:57:19;;;;;;;11.00;4.40;;;;;;;;;;5035914;28;20259;-78
2023/07/05 10:59:46;;;;;;;11.37;4.30;;;;;;;;;;5041598;28;20190;-77
2023/07/05 11:02:12;;;;;;;8.83;4.10;;;;;;;;;;5053695;28;20186;-80
2023/07/05 11:04:39;;;;;;;8.80;3.93;;;;;;;;;;5054012;28;20203;-80
2023/07/05 11:07:10;;;;;;;12.83;4.63;;;;;;;;;;5036367;28;20179;-80
2023/07/05 11:09:40;;;;;;;10.83;4.17;;;;;;;;;;5036224;28;20179;-80
2023/07/05 11:12:32;;;;;;;11.50;4.23;;;;;;;;;;5052954;28;20191;-80
2023/07/05 11:14:59;;;;;;;12.77;4.30;;;;;;;;;;5025000;28;20192;-81
2023/07/05 11:17:25;;;;;;;10.97;4.03;;;;;;;;;;5000380;28;20184;-78
2023/07/05 11:19:51;;;;;;;10.00;4.30;;;;;;;;;;5016342;28;20184;-79
2023/07/05 11:22:36;;;;;;;8.60;3.70;;;;;;;;;;5021846;28;20222;-79
2023/07/05 11:25:02;;;;;;;11.33;3.80;;;;;;;;;;5027038;28;20265;-79
2023/07/05 11:27:31;;;;;;;7.70;3.37;;;;;;;;;;5004937;28;20184;-79
2023/07/05 11:29:58;;;;;;;7.40;3.00;;;;;;;;;;5036193;28;20210;-79
2023/07/05 11:32:28;;;;;;;8.90;2.90;;;;;;;;;;5019745;28;20227;-80
2023/07/05 11:34:55;;;;;;;7.57;2.70;;;;;;;;;;5045101;28;20183;-79
2023/07/05 11:37:21;;;;;;;5.57;2.67;;;;;;;;;;5021577;28;20215;-80
2023/07/05 11:39:49;;;;;;;6.03;2.53;;;;;;;;;;5024683;28;20194;-78
2023/07/05 11:42:15;;;;;;;9.27;2.77;;;;;;;;;;5035940;28;20182;-79
2023/07/05 11:44:42;;;;;;;6.53;2.50;;;;;;;;;;5034934;28;20207;-78
2023/07/05 11:47:08;;;;;;;6.77;2.27;;;;;;;;;;5035421;28;20188;-79
2023/07/05 11:49:44;;;;;;;7.73;2.33;;;;;;;;;;5019607;28;20180;-79
2023/07/05 11:52:24;;;;;;;8.23;2.60;;;;;;;;;;5052825;28;20178;-78
2023/07/05 11:54:50;;;;;;;6.23;2.37;;;;;;;;;;5059487;28;20206;-79
2023/07/05 11:57:16;;;;;;;5.87;2.57;;;;;;;;;;5019194;28;20192;-79
2023/07/05 11:59:55;;;;;;;8.23;2.57;;;;;;;;;;5019470;28;20192;-80
2023/07/05 12:02:24;;;;;;;6.10;2.07;;;;;;;;;;5036013;28;20187;-79
2023/07/05 12:04:54;;;;;;;3.83;2.17;;;;;;;;;;5035860;28;20207;-79
2023/07/05 12:07:21;;;;;;;8.37;2.27;;;;;;;;;;5035136;28;20196;-82
2023/07/05 12:09:48;;;;;;;7.73;2.83;;;;;;;;;;5035890;28;20183;-83
2023/07/05 12:12:14;;;;;;;7.23;2.30;;;;;;;;;;5036116;28;20184;-82
2023/07/05 12:14:43;;;;;;;6.33;2.33;;;;;;;;;;5035568;28;20214;-83
2023/07/05 12:17:14;;;;;;;8.43;2.50;;;;;;;;;;5035217;28;20191;-82
2023/07/05 12:19:41;;;;;;;9.37;3.83;;;;;;;;;;5053675;28;20168;-82
2023/07/05 12:22:10;;;;;;;9.47;4.33;;;;;;;;;;5053597;28;20230;-82
2023/07/05 12:24:50;;;;;;;7.97;3.90;;;;;;;;;;5034677;28;20212;-82
2023/07/05 12:27:20;;;;;;;8.90;3.63;;;;;;;;;;5015916;28;20184;-83
2023/07/05 12:29:49;;;;;;;6.17;3.43;;;;;;;;;;5015977;28;20193;-82
2023/07/05 12:32:16;;;;;;;7.90;3.53;;;;;;;;;;5015498;28;20169;-82
2023/07/05 12:34:44;;;;;;;7.40;3.50;;;;;;;;;;5019104;28;20184;-81
2023/07/05 12:37:10;;;;;;;6.83;3.00;;;;;;;;;;5040398;28;20214;-81
2023/07/05 12:39:41;;;;;;;5.33;2.63;;;;;;;;;;5039496;28;20183;-81
2023/07/05 12:42:14;;;;;;;6.17;3.00;;;;;;;;;;5039257;28;20179;-78
2023/07/05 12:44:40;;;;;;;7.63;3.00;;;;;;;;;;5039083;28;20265;-79
2023/07/05 12:47:13;;;;;;;6.70;2.80;;;;;;;;;;5037650;28;20188;-79
2023/07/05 12:49:39;;;;;;;5.07;2.80;;;;;;;;;;5039091;28;20227;-78
2023/07/05 12:52:05;;;;;;;6.97;3.40;;;;;;;;;;5018626;28;20184;-82
2023/07/05 12:54:31;;;;;;;6.63;2.97;;;;;;;;;;5025333;28;20176;-82
2023/07/05 12:56:58;;;;;;;5.17;2.67;;;;;;;;;;5019633;28;20204;-85
2023/07/05 12:59:31;;;;;;;8.07;3.63;;;;;;;;;;5023110;28;20184;-79
2023/07/05 13:01:57;;;;;;;6.87;3.00;;;;;;;;;;5039959;28;20184;-86
2023/07/05 13:04:24;;;;;;;5.97;3.00;;;;;;;;;;5035227;28;20240;-85
2023/07/05 13:06:52;;;;;;;7.37;3.03;;;;;;;;;;5028581;28;20247;-83
2023/07/05 13:09:25;;;;;;;5.80;3.17;;;;;;;;;;5027780;28;20271;-85
2023/07/05 13:12:02;;;;;;;10.23;3.23;;;;;;;;;;5019810;28;20218;-84
2023/07/05 13:14:29;;;;;;;7.17;3.40;;;;;;;;;;5028244;28;20247;-82
2023/07/05 13:17:00;;;;;;;6.97;3.10;;;;;;;;;;5055759;28;20191;-83
2023/07/05 13:19:44;;;;;;;6.43;3.10;;;;;;;;;;5052788;28;20333;-82
2023/07/05 13:22:37;;;;;;;7.03;3.20;;;;;;;;;;5056403;28;20183;-82
2023/07/05 13:25:03;;;;;;;5.10;3.10;;;;;;;;;;5017555;28;20213;-82
2023/07/05 13:27:32;;;;;;;6.70;2.80;;;;;;;;;;5053153;28;20191;-82
2023/07/05 13:30:33;;;;;;;6.23;3.20;;;;;;;;;;5056340;28;20212;-82
2023/07/05 13:33:00;;;;;;;4.87;3.23;;;;;;;;;;4987380;28;20187;-82
2023/07/05 13:35:30;;;;;;;6.57;3.20;;;;;;;;;;5056239;28;20290;-82
2023/07/05 13:37:57;;;;;;;9.87;2.90;;;;;;;;;;5048051;28;20223;-82
2023/07/05 13:40:26;;;;;;;6.53;3.10;;;;;;;;;;5021256;28;20185;-82
2023/07/05 13:42:52;;;;;;;6.43;3.43;;;;;;;;;;5055773;28;20198;-82
2023/07/05 13:45:18;;;;;;;6.33;3.10;;;;;;;;;;5050297;28;20208;-82
2023/07/05 13:47:45;;;;;;;6.23;3.23;;;;;;;;;;5025691;28;20172;-85
2023/07/05 13:50:14;;;;;;;10.17;3.57;;;;;;;;;;5048651;28;20187;-84
2023/07/05 13:52:41;;;;;;;8.17;3.43;;;;;;;;;;5021534;28;20234;-86
2023/07/05 13:55:14;;;;;;;8.43;3.17;;;;;;;;;;5025839;28;20179;-86
2023/07/05 13:57:51;;;;;;;8.73;3.43;;;;;;;;;;5038628;28;20188;-86
2023/07/05 14:00:18;;;;;;;6.77;3.10;;;;;;;;;;5038396;28;20183;-87
2023/07/05 14:02:47;;;;;;;8.20;3.40;;;;;;;;;;5038737;28;20180;-87
2023/07/05 14:05:13;;;;;;;6.77;2.93;;;;;;;;;;5043118;28;20210;-83
2023/07/05 14:07:39;;;;;;;7.00;2.90;;;;;;;;;;5041687;28;20282;-82
2023/07/05 14:10:05;;;;;;;5.80;2.77;;;;;;;;;;5041518;28;20194;-82
2023/07/05 14:12:32;;;;;;;5.80;3.00;;;;;;;;;;5041850;28;20232;-83
2023/07/05 14:14:59;;;;;;;7.97;3.20;;;;;;;;;;5058216;28;20232;-83
2023/07/05 14:17:25;;;;;;;7.87;3.23;;;;;;;;;;5041706;28;20190;-82
2023/07/05 14:19:51;;;;;;;9.67;3.57;;;;;;;;;;5041138;28;20187;-82
2023/07/05 14:22:20;;;;;;;7.90;3.50;;;;;;;;;;5041753;28;20187;-82
2023/07/05 14:24:48;;;;;;;7.47;3.30;;;;;;;;;;5057705;28;20257;-82
2023/07/05 14:27:20;;;;;;;5.10;2.97;;;;;;;;;;5041345;28;20232;-81
2023/07/05 14:29:46;;;;;;;7.13;3.50;;;;;;;;;;5048723;28;20255;-82
2023/07/05 14:32:13;;;;;;;7.53;3.67;;;;;;;;;;5037947;28;20206;-82
2023/07/05 14:34:39;;;;;;;7.07;3.67;;;;;;;;;;5037988;28;20183;-81
2023/07/05 14:37:05;;;;;;;6.13;3.70;;;;;;;;;;5036943;28;20215;-83
2023/07/05 14:39:32;;;;;;;7.00;3.57;;;;;;;;;;5036625;28;20214;-82
2023/07/05 14:41:58;;;;;;;6.97;3.50;;;;;;;;;;5049370;28;20241;-83
2023/07/05 14:44:24;;;;;;;8.23;3.50;;;;;;;;;;5036223;28;20199;-82
2023/07/05 14:46:50;;;;;;;7.30;3.50;;;;;;;;;;5015031;28;20192;-82
2023/07/05 14:49:16;;;;;;;7.87;3.87;;;;;;;;;;5035294;28;20180;-82
2023/07/05 14:51:42;;;;;;;7.57;3.63;;;;;;;;;;5042824;23;20322;-79
2023/07/05 14:54:08;;;;;;;5.00;3.40;;;;;;;;;;5035187;28;20184;-80
2023/07/05 14:56:36;;;;;;;8.90;3.80;;;;;;;;;;5035134;28;20192;-80
2023/07/05 14:59:02;;;;;;;7.57;3.90;;;;;;;;;;5053705;28;20210;-81
2023/07/05 15:01:29;;;;;;;7.77;3.50;;;;;;;;;;5040740;28;20189;-81
2023/07/05 15:03:55;;;;;;;7.47;4.10;;;;;;;;;;5015044;28;20254;-80
2023/07/05 15:06:21;;;;;;;9.23;3.70;;;;;;;;;;5015140;28;20173;-80
2023/07/05 15:08:48;;;;;;;5.83;3.57;;;;;;;;;;4998655;28;20203;-81
2023/07/05 15:11:15;;;;;;;7.93;3.77;;;;;;;;;;5015338;28;20227;-81
2023/07/05 15:13:44;;;;;;;5.73;3.53;;;;;;;;;;4998937;28;20195;-80
2023/07/05 15:16:11;;;;;;;6.40;3.87;;;;;;;;;;4999476;28;20180;-81
2023/07/05 15:18:37;;;;;;;7.47;3.83;;;;;;;;;;5016748;28;20184;-81
2023/07/05 15:21:04;;;;;;;7.83;3.87;;;;;;;;;;5000319;28;20185;-81